Time;durP1;ratioP1;P1;durP2;ratioP2;P2;SDS_P1;SDS_P2;PMS_P1;PMS_P2;Temp;Humidity;BMP_temperature;BMP_pressure;BME280_temperature;BME280_humidity;BME280_pressure;Samples;Min_cycle;Max_cycle;Signal;HPM_P1;HPM_P2
2024/01/24 00:01:53;;;;;;;18.87;5.73;;;;;;;3.81;100.00;100968.36;4831767;58;1139391;-78
2024/01/24 00:06:59;;;;;;;27.43;5.57;;;;;;;3.84;100.00;100942.03;4781893;58;1138811;-78
2024/01/24 00:12:06;;;;;;;14.40;4.53;;;;;;;3.85;100.00;100908.88;4754946;59;1138640;-78
2024/01/24 00:17:11;;;;;;;25.57;5.37;;;;;;;3.86;100.00;100902.27;4727798;60;1139077;-79
2024/01/24 00:22:17;;;;;;;16.97;3.97;;;;;;;3.85;100.00;100873.09;4893423;59;1139098;-78
2024/01/24 00:27:22;;;;;;;10.25;2.77;;;;;;;3.84;100.00;100855.70;4872118;59;1139272;-78
2024/01/24 00:32:28;;;;;;;16.43;4.17;;;;;;;3.85;100.00;100848.23;4872732;59;1138778;-78
2024/01/24 00:37:33;;;;;;;20.77;4.15;;;;;;;3.86;100.00;100838.16;4890683;59;1138911;-78
2024/01/24 00:42:42;;;;;;;19.73;4.90;;;;;;;3.87;100.00;100833.78;4924814;58;1138687;-78
2024/01/24 00:47:46;;;;;;;10.97;2.80;;;;;;;3.91;100.00;100834.50;4940786;58;1138796;-78
2024/01/24 00:52:55;;;;;;;14.30;3.83;;;;;;;3.96;100.00;100811.14;4970737;57;1138801;-79
2024/01/24 00:58:00;;;;;;;12.37;3.73;;;;;;;4.00;100.00;100789.13;4943855;57;1138892;-78
2024/01/24 01:03:07;;;;;;;12.20;3.43;;;;;;;4.07;100.00;100768.77;4847150;58;1138734;-78
2024/01/24 01:08:13;;;;;;;18.73;3.77;;;;;;;4.12;100.00;100769.41;4721895;59;1138983;-78
2024/01/24 01:13:18;;;;;;;10.30;2.95;;;;;;;4.13;100.00;100739.67;4881434;58;1139477;-79
2024/01/24 01:18:24;;;;;;;18.32;4.00;;;;;;;4.11;100.00;100714.91;4720597;59;1138715;-78
2024/01/24 01:23:30;;;;;;;13.53;3.73;;;;;;;4.12;100.00;100683.89;4848993;58;1138714;-78
2024/01/24 01:28:36;;;;;;;14.33;4.23;;;;;;;4.12;100.00;100672.11;4741415;59;1138632;-78
2024/01/24 01:33:41;;;;;;;14.63;3.50;;;;;;;4.11;100.00;100685.27;4875761;59;1138939;-78
2024/01/24 01:38:47;;;;;;;8.27;3.07;;;;;;;4.09;100.00;100706.28;4869076;59;1138913;-78
2024/01/24 01:43:53;;;;;;;18.80;3.70;;;;;;;4.08;100.00;100677.09;4789626;58;1136580;-78
2024/01/24 01:49:00;;;;;;;17.23;5.63;;;;;;;4.04;100.00;100619.28;4955829;58;1138809;-78
2024/01/24 01:54:08;;;;;;;9.50;3.60;;;;;;;4.04;100.00;100584.41;4982271;57;1138835;-78
2024/01/24 01:59:15;;;;;;;16.07;4.17;;;;;;;4.03;100.00;100565.70;4888885;57;1136531;-78
2024/01/24 02:04:21;;;;;;;14.77;3.83;;;;;;;4.01;100.00;100544.84;4742872;59;1138966;-78
2024/01/24 02:09:26;;;;;;;20.52;4.58;;;;;;;3.99;100.00;100515.28;4865681;59;1138765;-78
2024/01/24 02:14:32;;;;;;;14.80;3.57;;;;;;;3.97;100.00;100478.38;4708423;60;1138558;-78
2024/01/24 02:19:38;;;;;;;14.47;3.30;;;;;;;3.97;100.00;100466.13;4864723;59;1138758;-78
2024/01/24 02:24:44;;;;;;;17.00;3.63;;;;;;;3.98;100.00;100443.40;4723966;59;1139054;-78
2024/01/24 02:29:49;;;;;;;19.90;3.43;;;;;;;3.99;100.00;100439.40;4878978;58;1138543;-78
2024/01/24 02:34:55;;;;;;;17.37;3.07;;;;;;;4.02;100.00;100417.00;4722927;58;1138954;-75
2024/01/24 02:40:00;;;;;;;17.17;3.20;;;;;;;4.05;100.00;100395.06;4891816;59;1139440;-75
2024/01/24 02:45:07;;;;;;;23.03;4.53;;;;;;;4.08;100.00;100368.28;4922996;58;1139190;-76
2024/01/24 02:50:13;;;;;;;12.53;3.63;;;;;;;4.11;100.00;100365.51;4937581;58;1145434;-76
2024/01/24 02:55:19;;;;;;;13.10;2.72;;;;;;;4.17;100.00;100355.15;4902034;57;1138871;-76
2024/01/24 03:00:24;;;;;;;14.75;4.20;;;;;;;4.20;100.00;100333.59;4872315;59;1138916;-76
2024/01/24 03:05:30;;;;;;;16.20;3.13;;;;;;;4.24;100.00;100303.71;4877680;58;1139829;-76
2024/01/24 03:10:35;;;;;;;14.90;3.63;;;;;;;4.29;100.00;100294.73;4900370;58;1139126;-76
2024/01/24 03:15:41;;;;;;;14.03;3.13;;;;;;;4.30;100.00;100276.80;4875547;58;1138780;-76
2024/01/24 03:20:46;;;;;;;15.07;4.03;;;;;;;4.30;100.00;100255.84;4876132;58;1138802;-76
2024/01/24 03:25:52;;;;;;;14.07;3.57;;;;;;;4.28;100.00;100265.59;4889379;58;1138611;-76
2024/01/24 03:30:58;;;;;;;18.20;3.50;;;;;;;4.25;100.00;100249.59;4872179;58;1139027;-75
2024/01/24 03:36:04;;;;;;;17.13;3.57;;;;;;;4.20;100.00;100222.81;4878767;58;1143009;-75
2024/01/24 03:41:10;;;;;;;9.37;3.40;;;;;;;4.11;100.00;100207.17;4908588;58;1139272;-76
2024/01/24 03:46:20;;;;;;;16.23;3.70;;;;;;;4.04;100.00;100161.33;4955236;58;1136980;-76
2024/01/24 03:51:28;;;;;;;13.00;2.90;;;;;;;4.01;100.00;100146.26;4915506;56;1139119;-76
2024/01/24 03:56:33;;;;;;;13.62;3.47;;;;;;;3.94;100.00;100148.86;5004971;56;1138919;-76
2024/01/24 04:01:39;;;;;;;18.90;3.60;;;;;;;3.93;100.00;100162.41;4982151;56;1138978;-75
2024/01/24 04:06:44;;;;;;;19.98;3.83;;;;;;;3.92;100.00;100127.17;4986904;56;1138640;-75
2024/01/24 04:11:50;;;;;;;11.20;2.97;;;;;;;3.88;100.00;100122.56;5003562;57;1138774;-75
2024/01/24 04:16:55;;;;;;;13.03;3.47;;;;;;;3.82;100.00;100100.66;4988804;56;1138693;-75
2024/01/24 04:22:01;;;;;;;10.38;2.80;;;;;;;3.72;100.00;100088.58;4989050;57;1138422;-75
2024/01/24 04:27:08;;;;;;;22.27;4.73;;;;;;;3.66;100.00;100051.03;4988770;57;1138835;-76
2024/01/24 04:32:14;;;;;;;7.42;2.33;;;;;;;3.62;100.00;100015.52;5004874;56;1138925;-76
2024/01/24 04:37:19;;;;;;;8.30;2.57;;;;;;;3.58;100.00;100006.16;4990517;56;1137288;-76
2024/01/24 04:42:25;;;;;;;8.30;2.73;;;;;;;3.63;100.00;100008.52;4978646;58;1136579;-76
2024/01/24 04:47:31;;;;;;;13.97;3.27;;;;;;;3.69;100.00;99995.91;4893604;58;1136631;-76
2024/01/24 04:52:37;;;;;;;12.80;2.70;;;;;;;3.68;100.00;99992.08;4918867;56;1136581;-76
2024/01/24 04:57:42;;;;;;;11.00;3.30;;;;;;;3.65;100.00;99957.81;5010382;56;1137022;-76
2024/01/24 05:02:48;;;;;;;16.10;4.12;;;;;;;3.69;100.00;99911.39;4983585;57;1136797;-76
2024/01/24 05:07:54;;;;;;;6.20;2.67;;;;;;;3.69;100.00;99911.39;4953359;58;1136446;-76
2024/01/24 05:12:59;;;;;;;4.67;3.35;;;;;;;3.70;100.00;99902.61;5031146;57;1134468;-76
2024/01/24 05:18:05;;;;;;;9.90;3.03;;;;;;;3.72;100.00;99881.98;5064336;57;1135002;-76
2024/01/24 05:23:11;;;;;;;4.22;2.17;;;;;;;3.76;100.00;99878.72;5026686;57;1134653;-76
2024/01/24 05:28:16;;;;;;;9.13;2.50;;;;;;;3.82;100.00;99867.41;4938610;57;1134448;-75
2024/01/24 05:33:23;;;;;;;11.55;3.27;;;;;;;3.86;100.00;99821.83;4765165;59;1134685;-76
2024/01/24 05:38:29;;;;;;;6.00;2.97;;;;;;;3.91;100.00;99806.33;4957877;57;1136556;-75
2024/01/24 05:43:35;;;;;;;7.93;2.67;;;;;;;3.97;100.00;99788.96;4945042;57;1134839;-75
2024/01/24 05:48:40;;;;;;;5.13;1.90;;;;;;;4.02;100.00;99770.71;4972791;58;1134535;-75
2024/01/24 05:53:46;;;;;;;4.10;1.93;;;;;;;4.10;100.00;99757.16;4985184;57;1134341;-74
2024/01/24 05:58:51;;;;;;;4.73;1.87;;;;;;;4.18;100.00;99768.81;4893916;58;1134779;-75
2024/01/24 06:03:57;;;;;;;7.40;1.90;;;;;;;4.26;100.00;99773.58;4889042;58;1134732;-75
2024/01/24 06:09:03;;;;;;;3.47;1.90;;;;;;;4.30;100.00;99763.27;4911144;57;1135006;-74
2024/01/24 06:14:08;;;;;;;1.60;1.50;;;;;;;4.36;100.00;99743.72;4815232;58;1134516;-75
2024/01/24 06:19:14;;;;;;;1.97;1.40;;;;;;;4.39;100.00;99741.75;4891061;58;1134402;-75
2024/01/24 06:24:19;;;;;;;2.63;2.17;;;;;;;4.43;100.00;99724.88;4905206;58;1134600;-75
2024/01/24 06:29:25;;;;;;;3.57;2.00;;;;;;;4.46;100.00;99722.06;4900698;58;1134873;-75
2024/01/24 06:34:31;;;;;;;1.80;1.70;;;;;;;4.52;100.00;99712.98;4950850;58;1170901;-74
2024/01/24 06:39:37;;;;;;;2.97;1.90;;;;;;;4.55;100.00;99708.86;4906780;57;1134403;-75
2024/01/24 06:44:42;;;;;;;2.63;1.97;;;;;;;4.59;100.00;99696.75;4943530;58;1134880;-75
2024/01/24 06:49:48;;;;;;;3.60;2.17;;;;;;;4.64;100.00;99683.83;4941682;58;1134469;-74
2024/01/24 06:54:54;;;;;;;2.02;1.80;;;;;;;4.68;100.00;99686.63;4802762;59;1134654;-75
2024/01/24 06:59:59;;;;;;;3.47;3.13;;;;;;;4.70;100.00;99659.86;4814672;59;1134902;-75
2024/01/24 07:05:06;;;;;;;3.03;2.70;;;;;;;4.78;100.00;99664.10;4759526;59;1134628;-74
2024/01/24 07:10:12;;;;;;;4.78;4.05;;;;;;;4.83;100.00;99653.69;4907509;58;1134958;-75
2024/01/24 07:15:18;;;;;;;7.43;4.50;;;;;;;4.89;100.00;99653.73;4920914;57;1134635;-74
2024/01/24 07:20:23;;;;;;;8.67;6.10;;;;;;;4.97;100.00;99676.33;4920084;57;1134713;-75
2024/01/24 07:25:30;;;;;;;6.70;4.60;;;;;;;5.01;100.00;99671.27;4895847;58;1134304;-76
2024/01/24 07:30:36;;;;;;;7.63;4.40;;;;;;;5.10;100.00;99668.47;4757430;60;1134569;-77
2024/01/24 07:35:43;;;;;;;5.67;3.67;;;;;;;5.22;100.00;99658.45;4687464;60;1134793;-78
2024/01/24 07:40:48;;;;;;;10.40;3.93;;;;;;;5.39;100.00;99645.00;4850113;59;1134922;-77
2024/01/24 07:45:54;;;;;;;6.33;3.72;;;;;;;5.58;100.00;99640.62;4852449;59;1136547;-77
2024/01/24 07:51:00;;;;;;;7.90;4.77;;;;;;;5.77;100.00;99621.78;4791630;59;1134376;-76
2024/01/24 07:56:06;;;;;;;11.95;5.20;;;;;;;5.91;100.00;99604.13;4884964;58;1134599;-77
2024/01/24 08:01:11;;;;;;;9.10;3.10;;;;;;;6.02;100.00;99600.70;4947023;57;1136612;-76
2024/01/24 08:06:17;;;;;;;5.37;2.30;;;;;;;6.14;100.00;99610.77;4922066;57;1134636;-77
2024/01/24 08:11:24;;;;;;;5.77;3.07;;;;;;;6.26;100.00;99621.20;4725964;59;1134590;-77
2024/01/24 08:16:31;;;;;;;5.17;3.03;;;;;;;6.39;100.00;99617.21;4867317;59;1135614;-77
2024/01/24 08:21:37;;;;;;;7.37;3.50;;;;;;;6.51;100.00;99624.64;4899207;58;1134814;-77
2024/01/24 08:26:44;;;;;;;3.33;2.30;;;;;;;6.60;100.00;99619.99;4960959;58;1134537;-76
2024/01/24 08:31:49;;;;;;;91.30;27.73;;;;;;;6.63;100.00;99610.58;4910278;58;1134602;-76
2024/01/24 08:36:55;;;;;;;5.80;3.10;;;;;;;6.69;100.00;99625.89;4865118;59;1138899;-77
2024/01/24 08:42:00;;;;;;;9.43;5.10;;;;;;;6.75;100.00;99633.77;4934768;58;1136783;-77
2024/01/24 08:47:06;;;;;;;7.05;2.85;;;;;;;6.79;100.00;99634.73;4952133;58;1136814;-76
2024/01/24 08:52:12;;;;;;;6.20;2.97;;;;;;;6.86;100.00;99637.75;4962608;57;1137050;-77
2024/01/24 08:57:17;;;;;;;4.00;3.07;;;;;;;6.90;100.00;99621.60;4970932;58;1136823;-77
2024/01/24 09:02:24;;;;;;;6.87;3.90;;;;;;;6.96;100.00;99618.99;4943441;58;1136781;-77
2024/01/24 09:07:30;;;;;;;1.77;1.53;;;;;;;7.05;100.00;99615.16;4949121;58;1136893;-77
2024/01/24 09:12:36;;;;;;;5.80;2.30;;;;;;;7.22;100.00;99616.97;4968636;58;1243481;-77
2024/01/24 09:17:41;;;;;;;2.20;1.60;;;;;;;7.32;100.00;99596.89;4947210;58;1136615;-77
2024/01/24 09:22:47;;;;;;;1.10;0.93;;;;;;;7.39;100.00;99611.22;4929076;57;1136541;-78
2024/01/24 09:27:53;;;;;;;7.80;1.40;;;;;;;7.48;100.00;99603.94;4897807;58;1136771;-78
2024/01/24 09:32:59;;;;;;;25.37;7.70;;;;;;;7.57;100.00;99604.51;4845221;59;1136608;-78
2024/01/24 09:38:05;;;;;;;3.33;1.53;;;;;;;7.62;100.00;99603.67;4851841;58;1138780;-78
2024/01/24 09:43:11;;;;;;;2.33;1.00;;;;;;;7.62;100.00;99590.99;4918912;58;1136945;-78
2024/01/24 09:48:17;;;;;;;1.77;1.07;;;;;;;7.68;100.00;99591.31;4796555;58;1137008;-78
2024/01/24 09:53:24;;;;;;;2.40;1.30;;;;;;;7.79;100.00;99594.91;4752560;59;1136636;-78
2024/01/24 09:58:29;;;;;;;6.23;0.90;;;;;;;7.87;100.00;99595.94;4972518;57;1136621;-78
2024/01/24 10:03:35;;;;;;;4.57;1.03;;;;;;;7.95;100.00;99590.88;4973892;58;1136868;-78
2024/01/24 10:08:41;;;;;;;4.47;0.97;;;;;;;8.01;100.00;99615.41;4952076;58;1136639;-78
2024/01/24 10:13:46;;;;;;;2.87;1.50;;;;;;;8.06;100.00;99618.50;4977967;58;1136837;-78
2024/01/24 10:18:54;;;;;;;9.53;2.00;;;;;;;8.06;100.00;99609.77;4949203;58;1136715;-78
2024/01/24 10:24:00;;;;;;;7.60;1.70;;;;;;;8.03;100.00;99596.37;4753641;58;1136661;-77
2024/01/24 10:29:08;;;;;;;4.95;1.55;;;;;;;7.99;100.00;99598.05;4869742;59;1136543;-78
2024/01/24 10:34:13;;;;;;;6.00;1.42;;;;;;;7.95;100.00;99590.03;4891373;58;1136785;-78
2024/01/24 10:39:22;;;;;;;1.83;0.90;;;;;;;7.96;100.00;99596.98;4878739;59;1151890;-78
2024/01/24 10:44:28;;;;;;;61.43;23.13;;;;;;;7.96;100.00;99598.30;4933921;58;1158613;-78
2024/01/24 10:49:35;;;;;;;12.93;5.07;;;;;;;7.95;100.00;99566.34;4975288;58;1243601;-77
2024/01/24 10:54:41;;;;;;;10.37;5.00;;;;;;;7.99;100.00;99569.09;4945126;57;1222015;-78
2024/01/24 10:59:48;;;;;;;7.07;2.33;;;;;;;8.09;100.00;99572.66;4957679;57;1173265;-78
2024/01/24 11:04:55;;;;;;;15.53;4.83;;;;;;;8.13;100.00;99559.56;4965002;57;1136761;-78
2024/01/24 11:10:14;;;;;;;9.90;1.90;;;;;;;8.22;100.00;99574.63;4932901;58;1139530;-78
2024/01/24 11:15:22;;;;;;;5.23;2.60;;;;;;;8.32;100.00;99565.50;4948621;58;1136645;-78
2024/01/24 11:20:28;;;;;;;13.17;2.90;;;;;;;8.39;100.00;99561.41;4925197;58;1136616;-78
2024/01/24 11:25:40;;;;;;;10.13;2.30;;;;;;;8.43;100.00;99566.75;4921287;57;1138504;-78
2024/01/24 11:30:46;;;;;;;17.20;3.20;;;;;;;8.48;100.00;99561.94;4926062;57;1138793;-78
2024/01/24 11:35:53;;;;;;;16.90;2.50;;;;;;;8.53;100.00;99572.09;4944367;58;1139070;-78
2024/01/24 11:41:11;;;;;;;10.27;2.47;;;;;;;8.64;100.00;99560.16;4907421;57;1139104;-78
2024/01/24 11:46:21;;;;;;;9.63;1.87;;;;;;;8.83;100.00;99570.81;4706866;59;1138777;-78
2024/01/24 11:51:27;;;;;;;10.17;2.70;;;;;;;9.12;100.00;99586.29;4895854;59;1136978;-78
2024/01/24 11:56:35;;;;;;;16.37;3.17;;;;;;;9.29;100.00;99590.11;4872184;58;1139174;-78
2024/01/24 12:01:39;;;;;;;8.90;2.27;;;;;;;9.25;100.00;99576.83;4875912;59;1138501;-78
2024/01/24 12:06:47;;;;;;;15.67;2.00;;;;;;;9.31;100.00;99569.70;4892272;58;1136436;-79
2024/01/24 12:11:53;;;;;;;15.27;3.07;;;;;;;9.31;100.00;99574.14;4875829;59;1138576;-78
2024/01/24 12:16:58;;;;;;;30.47;6.03;;;;;;;9.36;100.00;99570.11;4867354;57;1144101;-78
2024/01/24 12:22:08;;;;;;;9.97;2.40;;;;;;;9.25;100.00;99583.91;4875523;58;1138711;-78
2024/01/24 12:27:13;;;;;;;7.75;1.95;;;;;;;9.10;100.00;99614.59;4894375;59;1136405;-78
2024/01/24 12:32:18;;;;;;;3.50;1.20;;;;;;;8.88;100.00;99625.30;4880867;59;1137045;-79
2024/01/24 12:37:24;;;;;;;3.17;1.03;;;;;;;8.58;100.00;99633.14;4860733;57;1136930;-78
2024/01/24 12:42:30;;;;;;;1.85;0.95;;;;;;;8.27;100.00;99629.06;4927463;58;1136651;-78
2024/01/24 12:47:35;;;;;;;7.23;1.10;;;;;;;8.02;100.00;99626.77;4871238;59;1137053;-78
2024/01/24 12:52:42;;;;;;;0.80;0.60;;;;;;;7.80;100.00;99622.39;4879754;58;1136813;-78
2024/01/24 12:57:47;;;;;;;6.13;1.97;;;;;;;7.75;100.00;99607.47;4895299;58;1136734;-78
2024/01/24 13:02:53;;;;;;;1.40;0.70;;;;;;;8.40;100.00;99613.94;4872511;58;1136507;-78
2024/01/24 13:07:59;;;;;;;6.07;1.40;;;;;;;9.06;100.00;99606.59;4927226;58;1136477;-79
2024/01/24 13:13:07;;;;;;;9.23;1.82;;;;;;;9.54;100.00;99611.22;4929518;57;1136391;-78
2024/01/24 13:18:13;;;;;;;6.70;1.62;;;;;;;9.92;100.00;99607.84;4878476;59;1136659;-78
2024/01/24 13:23:18;;;;;;;10.77;2.77;;;;;;;10.06;100.00;99602.64;4877759;59;1136546;-78
2024/01/24 13:28:24;;;;;;;16.73;2.97;;;;;;;10.20;100.00;99594.33;4894296;58;1140917;-78
2024/01/24 13:33:30;;;;;;;13.70;3.47;;;;;;;9.88;100.00;99625.77;4903869;57;1140963;-78
2024/01/24 13:38:36;;;;;;;11.20;2.25;;;;;;;9.61;100.00;99614.17;4950867;58;1139055;-78
2024/01/24 13:43:42;;;;;;;16.77;3.00;;;;;;;9.34;100.00;99616.91;4919067;58;1139067;-78
2024/01/24 13:48:48;;;;;;;13.60;3.33;;;;;;;9.28;100.00;99639.05;4735621;59;1138798;-78
2024/01/24 13:53:53;;;;;;;7.87;2.33;;;;;;;9.09;100.00;99641.94;4832208;58;1138766;-78
2024/01/24 13:58:59;;;;;;;13.62;2.77;;;;;;;8.95;100.00;99655.47;4791076;59;1136988;-78
2024/01/24 14:04:05;;;;;;;23.47;4.35;;;;;;;8.75;100.00;99668.16;4816206;59;1138796;-77
2024/01/24 14:09:10;;;;;;;11.88;2.90;;;;;;;8.48;100.00;99666.02;4906928;58;1138798;-77
2024/01/24 14:14:16;;;;;;;13.72;3.17;;;;;;;8.31;100.00;99661.27;4875510;59;1139116;-78
2024/01/24 14:19:23;;;;;;;14.33;2.90;;;;;;;8.27;100.00;99661.98;4905658;59;1138442;-78
2024/01/24 14:24:29;;;;;;;13.63;3.00;;;;;;;8.24;100.00;99658.31;4875041;59;1138537;-78
2024/01/24 14:29:36;;;;;;;7.63;3.00;;;;;;;8.31;100.00;99659.95;4903295;57;1138428;-78
2024/01/24 14:34:41;;;;;;;14.83;3.73;;;;;;;8.27;100.00;99650.62;4970499;58;1136879;-78
2024/01/24 14:39:47;;;;;;;11.38;3.08;;;;;;;8.25;100.00;99657.33;4952567;58;1138886;-78
2024/01/24 14:44:54;;;;;;;15.73;3.13;;;;;;;8.27;100.00;99665.11;4881309;59;1139058;-77
2024/01/24 14:50:00;;;;;;;23.27;5.72;;;;;;;8.25;100.00;99663.91;4882484;59;1138843;-77
2024/01/24 14:55:06;;;;;;;16.20;2.58;;;;;;;8.24;100.00;99660.95;4876437;59;1138767;-77
2024/01/24 15:00:12;;;;;;;25.20;4.45;;;;;;;8.21;100.00;99669.58;4949259;58;1138585;-77
2024/01/24 15:05:18;;;;;;;18.77;4.12;;;;;;;8.20;100.00;99686.34;4953707;57;1138796;-77
2024/01/24 15:10:24;;;;;;;12.20;2.30;;;;;;;8.19;100.00;99676.77;4974463;58;1138760;-77
2024/01/24 15:15:31;;;;;;;21.43;3.77;;;;;;;8.15;100.00;99688.50;4951358;58;1138858;-77
2024/01/24 15:20:37;;;;;;;14.70;3.37;;;;;;;8.13;100.00;99699.98;4946979;57;1138409;-77
2024/01/24 15:25:42;;;;;;;15.37;2.80;;;;;;;8.11;100.00;99703.70;4787343;57;1138775;-77
2024/01/24 15:30:48;;;;;;;13.30;3.33;;;;;;;8.06;100.00;99707.20;4863478;57;1138514;-77
2024/01/24 15:35:53;;;;;;;19.67;4.40;;;;;;;8.00;100.00;99713.78;4756268;58;1138862;-77
2024/01/24 15:40:59;;;;;;;15.17;3.80;;;;;;;7.93;100.00;99706.03;4966481;57;1138672;-77
2024/01/24 15:46:05;;;;;;;7.93;2.70;;;;;;;7.85;100.00;99696.58;4966679;57;1141661;-77
2024/01/24 15:51:11;;;;;;;11.55;2.52;;;;;;;7.79;100.00;99723.88;4889588;58;1136959;-77
2024/01/24 15:56:17;;;;;;;14.07;2.80;;;;;;;7.76;100.00;99718.37;4923272;57;1138965;-78
2024/01/24 16:01:22;;;;;;;16.23;2.67;;;;;;;7.75;100.00;99703.06;4907179;57;1138574;-78
2024/01/24 16:06:28;;;;;;;14.67;2.97;;;;;;;7.75;100.00;99714.91;4758176;58;1139277;-79
2024/01/24 16:11:34;;;;;;;17.40;2.77;;;;;;;7.75;100.00;99713.59;4718274;59;1138546;-76
2024/01/24 16:16:39;;;;;;;22.73;5.00;;;;;;;7.77;100.00;99733.21;4801047;58;1138530;-78
2024/01/24 16:21:51;;;;;;;16.17;4.50;;;;;;;7.72;100.00;99736.67;4829881;58;1138736;-77
2024/01/24 16:26:56;;;;;;;13.07;2.83;;;;;;;7.62;100.00;99743.63;4954389;57;1139364;-77
2024/01/24 16:32:02;;;;;;;22.73;4.83;;;;;;;7.61;100.00;99748.52;4878000;58;1138786;-77
2024/01/24 16:37:08;;;;;;;23.27;4.58;;;;;;;7.62;100.00;99743.14;4889244;58;1138694;-78
2024/01/24 16:42:13;;;;;;;21.02;5.20;;;;;;;7.59;100.00;99761.80;4915204;57;1138704;-76
2024/01/24 16:47:19;;;;;;;17.67;3.50;;;;;;;7.56;100.00;99762.02;4950159;58;1139124;-78
2024/01/24 16:52:24;;;;;;;11.37;2.60;;;;;;;7.51;100.00;99764.16;4891319;58;1138683;-77
2024/01/24 16:57:30;;;;;;;24.40;6.20;;;;;;;7.42;100.00;99775.41;4881726;57;1139507;-77
2024/01/24 17:02:36;;;;;;;11.57;2.63;;;;;;;7.37;100.00;99769.64;4925951;57;1138724;-78
2024/01/24 17:07:41;;;;;;;13.87;1.83;;;;;;;7.34;100.00;99764.61;4963016;57;1139655;-79
2024/01/24 17:12:49;;;;;;;8.10;2.37;;;;;;;7.30;100.00;99761.88;4955092;58;1136573;-78
2024/01/24 17:17:55;;;;;;;19.57;3.50;;;;;;;7.29;100.00;99755.78;4966644;57;1136789;-77
2024/01/24 17:23:01;;;;;;;23.97;6.53;;;;;;;7.33;100.00;99767.72;4955173;58;1138816;-78
2024/01/24 17:28:07;;;;;;;20.43;4.70;;;;;;;7.32;100.00;99762.13;4942444;58;1141227;-77
2024/01/24 17:33:12;;;;;;;10.10;2.17;;;;;;;7.36;100.00;99757.45;4921539;57;1138598;-79
2024/01/24 17:38:18;;;;;;;11.48;2.58;;;;;;;7.36;100.00;99751.70;4916867;57;1138707;-79
2024/01/24 17:43:24;;;;;;;12.90;2.13;;;;;;;7.36;100.00;99752.19;4935846;57;1138919;-77
2024/01/24 17:48:29;;;;;;;17.17;2.50;;;;;;;7.38;100.00;99763.43;4922117;57;1138847;-79
2024/01/24 17:53:35;;;;;;;5.13;1.40;;;;;;;7.35;100.00;99761.87;4884577;57;1138529;-77
2024/01/24 17:58:40;;;;;;;5.73;1.97;;;;;;;7.43;100.00;99773.14;4906037;57;1136503;-77
2024/01/24 18:03:46;;;;;;;5.30;1.40;;;;;;;7.49;100.00;99769.17;4875657;58;1136482;-77
2024/01/24 18:08:52;;;;;;;5.28;1.82;;;;;;;7.48;100.00;99758.33;4783921;58;1136433;-77
2024/01/24 18:13:57;;;;;;;9.57;2.40;;;;;;;7.51;100.00;99761.53;4811068;58;1137006;-78
2024/01/24 18:19:04;;;;;;;6.10;1.55;;;;;;;7.58;100.00;99779.02;4854184;58;1136852;-78
2024/01/24 18:24:10;;;;;;;10.30;1.67;;;;;;;7.60;100.00;99776.62;4796498;59;1137268;-79
2024/01/24 18:29:15;;;;;;;18.50;8.67;;;;;;;7.57;100.00;99768.12;4903591;57;1139057;-78
2024/01/24 18:34:21;;;;;;;11.43;2.50;;;;;;;7.55;100.00;99776.61;4941077;57;1138852;-78
2024/01/24 18:39:26;;;;;;;4.67;1.67;;;;;;;7.52;100.00;99790.83;4902608;57;1138903;-78
2024/01/24 18:44:32;;;;;;;3.97;1.37;;;;;;;7.47;100.00;99779.01;4922499;58;1137411;-77
2024/01/24 18:49:38;;;;;;;5.63;1.60;;;;;;;7.46;100.00;99775.54;4935419;57;1136665;-79
2024/01/24 18:54:44;;;;;;;3.57;1.03;;;;;;;7.48;100.00;99796.47;4925679;58;1136809;-78
2024/01/24 18:59:49;;;;;;;7.23;1.53;;;;;;;7.52;100.00;99784.73;4903709;58;1136823;-77
2024/01/24 19:04:57;;;;;;;15.10;2.77;;;;;;;7.55;100.00;99773.50;4941921;58;1136740;-77
2024/01/24 19:10:02;;;;;;;10.33;1.70;;;;;;;7.55;100.00;99782.72;4920774;58;1138962;-77
2024/01/24 19:15:08;;;;;;;5.50;0.93;;;;;;;7.57;100.00;99775.55;4909585;58;1139025;-77
2024/01/24 19:20:14;;;;;;;3.70;1.30;;;;;;;7.62;100.00;99789.20;4942551;58;1136757;-77
2024/01/24 19:25:20;;;;;;;6.55;2.17;;;;;;;7.63;100.00;99785.61;4906407;56;1136587;-77
2024/01/24 19:30:27;;;;;;;11.03;3.10;;;;;;;7.65;100.00;99794.67;5004998;55;1136505;-76
2024/01/24 19:35:32;;;;;;;7.83;1.70;;;;;;;7.61;100.00;99798.05;5024381;56;1138759;-77
2024/01/24 19:40:38;;;;;;;10.80;1.97;;;;;;;7.52;100.00;99808.41;4934087;57;1136851;-76
2024/01/24 19:45:44;;;;;;;11.27;3.97;;;;;;;7.45;100.00;99794.91;4768806;57;1139236;-77
2024/01/24 19:50:49;;;;;;;10.17;2.17;;;;;;;7.54;100.00;99780.20;4888177;58;1138682;-78
2024/01/24 19:55:59;;;;;;;9.17;1.73;;;;;;;7.58;100.00;99796.95;4869069;59;1138607;-78
2024/01/24 20:01:04;;;;;;;10.13;2.62;;;;;;;7.63;100.00;99801.41;4799732;58;1137248;-81
2024/01/24 20:06:10;;;;;;;4.20;1.15;;;;;;;7.65;100.00;99804.72;4940417;58;1138735;-77
2024/01/24 20:11:15;;;;;;;4.45;1.45;;;;;;;7.68;100.00;99815.50;4948629;58;1136685;-78
2024/01/24 20:16:21;;;;;;;7.08;1.17;;;;;;;7.70;100.00;99823.64;4914652;58;1136670;-77
2024/01/24 20:21:27;;;;;;;171.30;76.20;;;;;;;7.71;100.00;99841.11;4907253;58;1137131;-77
2024/01/24 20:26:33;;;;;;;4.53;1.37;;;;;;;7.72;100.00;99833.58;4928789;58;1143095;-78
2024/01/24 20:31:39;;;;;;;9.90;3.33;;;;;;;7.68;100.00;99831.29;4951647;57;1136682;-80
2024/01/24 20:36:45;;;;;;;10.20;1.40;;;;;;;7.66;100.00;99839.78;4946811;57;1136810;-81
2024/01/24 20:41:50;;;;;;;5.70;2.47;;;;;;;7.64;100.00;99812.73;4898677;57;1138862;-79
2024/01/24 20:46:57;;;;;;;7.77;1.87;;;;;;;7.61;100.00;99799.84;4844147;58;1136770;-78
2024/01/24 20:52:03;;;;;;;8.43;2.30;;;;;;;7.61;100.00;99798.52;4846009;59;1136618;-77
2024/01/24 20:57:08;;;;;;;8.73;2.53;;;;;;;7.59;100.00;99830.69;4902745;58;1136670;-80
2024/01/24 21:02:14;;;;;;;12.30;2.12;;;;;;;7.56;100.00;99835.70;4919441;57;1136589;-79
2024/01/24 21:07:20;;;;;;;12.30;1.90;;;;;;;7.47;100.00;99842.16;4926273;58;1138944;-77
2024/01/24 21:12:26;;;;;;;12.67;1.83;;;;;;;7.23;100.00;99850.07;4944887;58;1136881;-80
2024/01/24 21:17:33;;;;;;;8.10;1.53;;;;;;;7.07;100.00;99854.31;4927054;57;1136783;-79
2024/01/24 21:22:38;;;;;;;9.25;2.22;;;;;;;6.92;100.00;99848.39;4933120;57;1134665;-78
2024/01/24 21:27:44;;;;;;;7.10;1.90;;;;;;;6.83;100.00;99870.09;4878981;58;1134726;-81
2024/01/24 21:32:50;;;;;;;20.73;3.33;;;;;;;6.76;100.00;99848.30;4905904;58;1134559;-78
2024/01/24 21:37:57;;;;;;;12.10;2.37;;;;;;;6.68;100.00;99844.45;4917526;57;1136848;-79
2024/01/24 21:43:03;;;;;;;17.60;4.10;;;;;;;6.62;100.00;99838.31;4925474;58;1136758;-80
2024/01/24 21:48:09;;;;;;;19.33;3.13;;;;;;;6.61;100.00;99844.52;4927547;58;1136477;-80
2024/01/24 21:53:14;;;;;;;15.40;3.63;;;;;;;6.69;100.00;99857.96;4779313;59;1136484;-81
2024/01/24 21:58:20;;;;;;;11.10;2.30;;;;;;;6.73;100.00;99866.91;4750362;59;1137486;-78
2024/01/24 22:03:25;;;;;;;10.00;2.47;;;;;;;6.78;100.00;99874.00;4812779;58;1136811;-78
2024/01/24 22:08:31;;;;;;;31.47;3.73;;;;;;;6.75;100.00;99897.86;4794369;58;1136909;-78
2024/01/24 22:13:37;;;;;;;11.57;3.30;;;;;;;6.68;100.00;99899.63;4797963;57;1136801;-78
2024/01/24 22:18:42;;;;;;;15.97;2.77;;;;;;;6.51;100.00;99904.41;4762771;59;1136834;-78
2024/01/24 22:23:48;;;;;;;16.93;2.80;;;;;;;6.35;100.00;99900.70;4971111;57;1136615;-78
2024/01/24 22:28:53;;;;;;;22.27;4.60;;;;;;;6.25;100.00;99897.88;4962199;57;1137064;-78
2024/01/24 22:33:59;;;;;;;30.47;4.83;;;;;;;6.22;100.00;99905.12;4931402;57;1136911;-77
2024/01/24 22:39:05;;;;;;;14.98;2.65;;;;;;;6.22;100.00;99915.63;4894621;59;1136687;-79
2024/01/24 22:44:10;;;;;;;19.07;3.07;;;;;;;6.21;100.00;99916.58;4943720;58;1136662;-78
2024/01/24 22:49:16;;;;;;;22.35;3.27;;;;;;;6.23;100.00;99934.38;4943899;58;1136915;-78
2024/01/24 22:54:22;;;;;;;24.98;3.65;;;;;;;6.22;100.00;99941.42;4966480;58;1136565;-79
2024/01/24 22:59:29;;;;;;;30.30;5.70;;;;;;;6.22;100.00;99949.30;4955260;57;1137687;-79
2024/01/24 23:04:35;;;;;;;11.53;2.73;;;;;;;6.26;100.00;99974.38;4946273;57;1136895;-78
2024/01/24 23:09:41;;;;;;;15.50;3.43;;;;;;;6.27;100.00;99963.41;4970381;57;1136864;-79
2024/01/24 23:14:46;;;;;;;14.97;3.27;;;;;;;6.29;100.00;99977.27;4960423;57;1136797;-78